sensor_id;sensor_type;location;lat;lon;timestamp;P1;durP1;ratioP1;P2;durP2;ratioP2
11797;SDS011;5956;51.428;6.682;2024-02-04T00:01:47;6.07;;;5.23;;
11797;SDS011;5956;51.428;6.682;2024-02-04T00:04:14;4.97;;;4.57;;
11797;SDS011;5956;51.428;6.682;2024-02-04T00:06:42;3.80;;;3.50;;
11797;SDS011;5956;51.428;6.682;2024-02-04T00:09:08;3.80;;;3.47;;
11797;SDS011;5956;51.428;6.682;2024-02-04T00:11:35;3.20;;;3.00;;
11797;SDS011;5956;51.428;6.682;2024-02-04T00:14:01;3.00;;;2.80;;
11797;SDS011;5956;51.428;6.682;2024-02-04T00:16:28;2.93;;;2.73;;
11797;SDS011;5956;51.428;6.682;2024-02-04T00:18:55;2.60;;;2.50;;
11797;SDS011;5956;51.428;6.682;2024-02-04T00:21:21;3.07;;;2.87;;
11797;SDS011;5956;51.428;6.682;2024-02-04T00:23:50;3.43;;;3.23;;
11797;SDS011;5956;51.428;6.682;2024-02-04T00:26:16;3.13;;;2.93;;
11797;SDS011;5956;51.428;6.682;2024-02-04T00:28:43;3.13;;;2.93;;
11797;SDS011;5956;51.428;6.682;2024-02-04T00:31:09;3.47;;;3.27;;
11797;SDS011;5956;51.428;6.682;2024-02-04T00:33:36;4.30;;;4.00;;
11797;SDS011;5956;51.428;6.682;2024-02-04T00:36:02;4.80;;;4.50;;
11797;SDS011;5956;51.428;6.682;2024-02-04T00:38:29;5.63;;;5.23;;
11797;SDS011;5956;51.428;6.682;2024-02-04T00:40:56;5.90;;;5.40;;
11797;SDS011;5956;51.428;6.682;2024-02-04T00:43:23;6.00;;;5.60;;
11797;SDS011;5956;51.428;6.682;2024-02-04T00:45:49;6.00;;;5.50;;
11797;SDS011;5956;51.428;6.682;2024-02-04T00:48:16;5.83;;;5.43;;
11797;SDS011;5956;51.428;6.682;2024-02-04T00:50:42;6.00;;;5.53;;
11797;SDS011;5956;51.428;6.682;2024-02-04T00:53:09;6.47;;;5.93;;
11797;SDS011;5956;51.428;6.682;2024-02-04T00:55:35;6.00;;;5.60;;
11797;SDS011;5956;51.428;6.682;2024-02-04T00:58:03;6.20;;;5.67;;
11797;SDS011;5956;51.428;6.682;2024-02-04T01:00:29;6.17;;;5.77;;
11797;SDS011;5956;51.428;6.682;2024-02-04T01:02:56;5.67;;;5.27;;
11797;SDS011;5956;51.428;6.682;2024-02-04T01:05:22;6.63;;;6.10;;
11797;SDS011;5956;51.428;6.682;2024-02-04T01:07:49;6.87;;;6.33;;
11797;SDS011;5956;51.428;6.682;2024-02-04T01:10:15;6.47;;;6.03;;
11797;SDS011;5956;51.428;6.682;2024-02-04T01:12:42;6.70;;;6.20;;
11797;SDS011;5956;51.428;6.682;2024-02-04T01:15:10;7.73;;;7.00;;
11797;SDS011;5956;51.428;6.682;2024-02-04T01:17:37;7.30;;;6.60;;
11797;SDS011;5956;51.428;6.682;2024-02-04T01:20:03;7.50;;;6.90;;
11797;SDS011;5956;51.428;6.682;2024-02-04T01:22:30;7.03;;;6.53;;
11797;SDS011;5956;51.428;6.682;2024-02-04T01:24:57;7.03;;;6.53;;
11797;SDS011;5956;51.428;6.682;2024-02-04T01:27:23;7.47;;;6.87;;
11797;SDS011;5956;51.428;6.682;2024-02-04T01:29:50;8.00;;;7.30;;
11797;SDS011;5956;51.428;6.682;2024-02-04T01:32:19;8.03;;;7.43;;
11797;SDS011;5956;51.428;6.682;2024-02-04T01:34:46;7.90;;;7.30;;
11797;SDS011;5956;51.428;6.682;2024-02-04T01:37:12;7.73;;;7.03;;
11797;SDS011;5956;51.428;6.682;2024-02-04T01:39:39;7.37;;;6.80;;
11797;SDS011;5956;51.428;6.682;2024-02-04T01:42:05;8.53;;;7.83;;
11797;SDS011;5956;51.428;6.682;2024-02-04T01:44:32;8.30;;;7.70;;
11797;SDS011;5956;51.428;6.682;2024-02-04T01:46:58;8.00;;;7.40;;
11797;SDS011;5956;51.428;6.682;2024-02-04T01:49:26;8.27;;;7.53;;
11797;SDS011;5956;51.428;6.682;2024-02-04T01:51:53;10.30;;;8.63;;
11797;SDS011;5956;51.428;6.682;2024-02-04T01:54:20;8.00;;;7.43;;
11797;SDS011;5956;51.428;6.682;2024-02-04T01:56:48;8.83;;;8.10;;
11797;SDS011;5956;51.428;6.682;2024-02-04T01:59:15;8.80;;;8.10;;
11797;SDS011;5956;51.428;6.682;2024-02-04T02:01:42;8.90;;;8.10;;
11797;SDS011;5956;51.428;6.682;2024-02-04T02:04:09;8.40;;;7.70;;
11797;SDS011;5956;51.428;6.682;2024-02-04T02:06:37;9.13;;;8.27;;
11797;SDS011;5956;51.428;6.682;2024-02-04T02:09:07;7.93;;;7.33;;
11797;SDS011;5956;51.428;6.682;2024-02-04T02:11:35;8.83;;;8.13;;
11797;SDS011;5956;51.428;6.682;2024-02-04T02:14:04;8.63;;;7.83;;
11797;SDS011;5956;51.428;6.682;2024-02-04T02:16:32;8.33;;;7.63;;
11797;SDS011;5956;51.428;6.682;2024-02-04T02:19:00;7.90;;;7.30;;
11797;SDS011;5956;51.428;6.682;2024-02-04T02:21:31;9.20;;;8.07;;
11797;SDS011;5956;51.428;6.682;2024-02-04T02:24:14;8.00;;;7.40;;
11797;SDS011;5956;51.428;6.682;2024-02-04T02:26:43;8.93;;;8.23;;
11797;SDS011;5956;51.428;6.682;2024-02-04T02:29:10;9.50;;;8.77;;
11797;SDS011;5956;51.428;6.682;2024-02-04T02:31:37;8.63;;;7.90;;
11797;SDS011;5956;51.428;6.682;2024-02-04T02:34:04;8.87;;;8.17;;
11797;SDS011;5956;51.428;6.682;2024-02-04T02:36:33;8.97;;;8.27;;
11797;SDS011;5956;51.428;6.682;2024-02-04T02:39:03;9.43;;;8.63;;
11797;SDS011;5956;51.428;6.682;2024-02-04T02:41:34;9.80;;;9.00;;
11797;SDS011;5956;51.428;6.682;2024-02-04T02:44:03;10.73;;;9.73;;
11797;SDS011;5956;51.428;6.682;2024-02-04T02:46:31;9.87;;;9.07;;
11797;SDS011;5956;51.428;6.682;2024-02-04T02:48:58;10.63;;;9.60;;
11797;SDS011;5956;51.428;6.682;2024-02-04T02:51:24;11.50;;;10.47;;
11797;SDS011;5956;51.428;6.682;2024-02-04T02:53:51;11.10;;;10.20;;
11797;SDS011;5956;51.428;6.682;2024-02-04T02:56:17;11.23;;;10.20;;
11797;SDS011;5956;51.428;6.682;2024-02-04T02:58:44;11.87;;;10.67;;
11797;SDS011;5956;51.428;6.682;2024-02-04T03:01:11;12.17;;;11.07;;
11797;SDS011;5956;51.428;6.682;2024-02-04T03:03:37;12.67;;;11.53;;
11797;SDS011;5956;51.428;6.682;2024-02-04T03:06:04;12.83;;;11.53;;
11797;SDS011;5956;51.428;6.682;2024-02-04T03:08:31;12.83;;;11.63;;
11797;SDS011;5956;51.428;6.682;2024-02-04T03:10:58;12.90;;;11.80;;
11797;SDS011;5956;51.428;6.682;2024-02-04T03:13:24;13.70;;;12.50;;
11797;SDS011;5956;51.428;6.682;2024-02-04T03:15:50;12.93;;;11.67;;
11797;SDS011;5956;51.428;6.682;2024-02-04T03:18:18;13.37;;;12.17;;
11797;SDS011;5956;51.428;6.682;2024-02-04T03:20:45;13.30;;;12.10;;
11797;SDS011;5956;51.428;6.682;2024-02-04T03:23:11;12.50;;;11.47;;
11797;SDS011;5956;51.428;6.682;2024-02-04T03:25:38;14.00;;;12.57;;
11797;SDS011;5956;51.428;6.682;2024-02-04T03:28:04;11.97;;;10.97;;
11797;SDS011;5956;51.428;6.682;2024-02-04T03:30:31;12.17;;;11.10;;
11797;SDS011;5956;51.428;6.682;2024-02-04T03:32:57;11.73;;;10.63;;
11797;SDS011;5956;51.428;6.682;2024-02-04T03:35:25;11.93;;;10.93;;
11797;SDS011;5956;51.428;6.682;2024-02-04T03:37:51;12.10;;;11.00;;
11797;SDS011;5956;51.428;6.682;2024-02-04T03:40:18;12.57;;;11.37;;
11797;SDS011;5956;51.428;6.682;2024-02-04T03:42:47;12.47;;;11.37;;
11797;SDS011;5956;51.428;6.682;2024-02-04T03:45:13;11.43;;;10.33;;
11797;SDS011;5956;51.428;6.682;2024-02-04T03:47:40;11.27;;;10.27;;
11797;SDS011;5956;51.428;6.682;2024-02-04T03:50:07;12.23;;;11.23;;
11797;SDS011;5956;51.428;6.682;2024-02-04T03:52:35;11.43;;;10.43;;
11797;SDS011;5956;51.428;6.682;2024-02-04T03:55:01;11.27;;;10.30;;
11797;SDS011;5956;51.428;6.682;2024-02-04T03:57:27;11.60;;;10.50;;
11797;SDS011;5956;51.428;6.682;2024-02-04T03:59:54;11.13;;;10.13;;
11797;SDS011;5956;51.428;6.682;2024-02-04T04:02:20;11.70;;;10.80;;
11797;SDS011;5956;51.428;6.682;2024-02-04T04:04:47;13.00;;;11.87;;
11797;SDS011;5956;51.428;6.682;2024-02-04T04:07:13;14.07;;;12.67;;
11797;SDS011;5956;51.428;6.682;2024-02-04T04:09:41;14.90;;;13.47;;
11797;SDS011;5956;51.428;6.682;2024-02-04T04:12:08;16.73;;;15.03;;
11797;SDS011;5956;51.428;6.682;2024-02-04T04:14:34;15.77;;;14.00;;
11797;SDS011;5956;51.428;6.682;2024-02-04T04:17:00;16.97;;;15.27;;
11797;SDS011;5956;51.428;6.682;2024-02-04T04:19:26;18.53;;;16.67;;
11797;SDS011;5956;51.428;6.682;2024-02-04T04:21:52;20.00;;;15.67;;
11797;SDS011;5956;51.428;6.682;2024-02-04T04:24:19;17.27;;;15.33;;
11797;SDS011;5956;51.428;6.682;2024-02-04T04:26:48;18.10;;;16.13;;
11797;SDS011;5956;51.428;6.682;2024-02-04T04:29:15;18.87;;;16.80;;
11797;SDS011;5956;51.428;6.682;2024-02-04T04:31:41;19.40;;;17.33;;
11797;SDS011;5956;51.428;6.682;2024-02-04T04:34:08;18.43;;;16.57;;
11797;SDS011;5956;51.428;6.682;2024-02-04T04:36:34;18.33;;;16.63;;
11797;SDS011;5956;51.428;6.682;2024-02-04T04:39:01;18.50;;;14.77;;
11797;SDS011;5956;51.428;6.682;2024-02-04T04:41:27;16.47;;;14.80;;
11797;SDS011;5956;51.428;6.682;2024-02-04T04:43:55;17.63;;;15.73;;
11797;SDS011;5956;51.428;6.682;2024-02-04T04:46:22;19.33;;;15.10;;
11797;SDS011;5956;51.428;6.682;2024-02-04T04:48:48;16.80;;;14.03;;
11797;SDS011;5956;51.428;6.682;2024-02-04T04:51:15;17.87;;;16.07;;
11797;SDS011;5956;51.428;6.682;2024-02-04T04:53:41;17.50;;;14.30;;
11797;SDS011;5956;51.428;6.682;2024-02-04T04:56:08;18.37;;;13.63;;
11797;SDS011;5956;51.428;6.682;2024-02-04T04:58:34;15.23;;;13.70;;
11797;SDS011;5956;51.428;6.682;2024-02-04T05:01:02;13.90;;;12.60;;
11797;SDS011;5956;51.428;6.682;2024-02-04T05:03:30;14.30;;;12.90;;
11797;SDS011;5956;51.428;6.682;2024-02-04T05:05:57;16.80;;;14.53;;
11797;SDS011;5956;51.428;6.682;2024-02-04T05:08:26;14.10;;;12.40;;
11797;SDS011;5956;51.428;6.682;2024-02-04T05:10:52;14.13;;;11.70;;
11797;SDS011;5956;51.428;6.682;2024-02-04T05:13:19;15.00;;;11.97;;
11797;SDS011;5956;51.428;6.682;2024-02-04T05:15:45;16.70;;;12.97;;
11797;SDS011;5956;51.428;6.682;2024-02-04T05:18:13;13.97;;;12.77;;
11797;SDS011;5956;51.428;6.682;2024-02-04T05:20:39;15.37;;;13.87;;
11797;SDS011;5956;51.428;6.682;2024-02-04T05:23:08;15.80;;;14.13;;
11797;SDS011;5956;51.428;6.682;2024-02-04T05:25:34;17.87;;;15.60;;
11797;SDS011;5956;51.428;6.682;2024-02-04T05:28:01;16.63;;;15.00;;
11797;SDS011;5956;51.428;6.682;2024-02-04T05:30:27;21.13;;;19.00;;
11797;SDS011;5956;51.428;6.682;2024-02-04T05:32:54;20.00;;;16.53;;
11797;SDS011;5956;51.428;6.682;2024-02-04T05:35:22;16.93;;;15.30;;
11797;SDS011;5956;51.428;6.682;2024-02-04T05:37:48;18.27;;;15.73;;
11797;SDS011;5956;51.428;6.682;2024-02-04T05:40:15;19.30;;;17.33;;
11797;SDS011;5956;51.428;6.682;2024-02-04T05:42:43;19.30;;;17.30;;
11797;SDS011;5956;51.428;6.682;2024-02-04T05:45:10;19.20;;;16.83;;
11797;SDS011;5956;51.428;6.682;2024-02-04T05:47:37;21.20;;;17.67;;
11797;SDS011;5956;51.428;6.682;2024-02-04T05:50:04;19.87;;;17.90;;
11797;SDS011;5956;51.428;6.682;2024-02-04T05:52:32;19.73;;;17.63;;
11797;SDS011;5956;51.428;6.682;2024-02-04T05:54:58;22.43;;;19.13;;
11797;SDS011;5956;51.428;6.682;2024-02-04T05:57:25;22.20;;;19.87;;
11797;SDS011;5956;51.428;6.682;2024-02-04T05:59:51;25.10;;;21.60;;
11797;SDS011;5956;51.428;6.682;2024-02-04T06:02:20;24.17;;;21.67;;
11797;SDS011;5956;51.428;6.682;2024-02-04T06:04:46;25.67;;;21.63;;
11797;SDS011;5956;51.428;6.682;2024-02-04T06:07:13;26.43;;;23.73;;
11797;SDS011;5956;51.428;6.682;2024-02-04T06:09:41;27.13;;;23.30;;
11797;SDS011;5956;51.428;6.682;2024-02-04T06:12:07;26.63;;;23.83;;
11797;SDS011;5956;51.428;6.682;2024-02-04T06:14:34;27.87;;;24.37;;
11797;SDS011;5956;51.428;6.682;2024-02-04T06:17:01;25.90;;;23.13;;
11797;SDS011;5956;51.428;6.682;2024-02-04T06:19:28;29.40;;;24.70;;
11797;SDS011;5956;51.428;6.682;2024-02-04T06:21:54;30.00;;;24.37;;
11797;SDS011;5956;51.428;6.682;2024-02-04T06:24:20;25.90;;;23.10;;
11797;SDS011;5956;51.428;6.682;2024-02-04T06:26:48;26.97;;;23.30;;
11797;SDS011;5956;51.428;6.682;2024-02-04T06:29:15;28.53;;;21.07;;
11797;SDS011;5956;51.428;6.682;2024-02-04T06:31:44;25.20;;;21.37;;
11797;SDS011;5956;51.428;6.682;2024-02-04T06:34:10;24.97;;;20.67;;
11797;SDS011;5956;51.428;6.682;2024-02-04T06:36:36;24.23;;;20.77;;
11797;SDS011;5956;51.428;6.682;2024-02-04T06:39:03;25.20;;;21.10;;
11797;SDS011;5956;51.428;6.682;2024-02-04T06:41:32;23.70;;;20.60;;
11797;SDS011;5956;51.428;6.682;2024-02-04T06:44:01;22.23;;;19.10;;
11797;SDS011;5956;51.428;6.682;2024-02-04T06:46:28;23.33;;;20.23;;
11797;SDS011;5956;51.428;6.682;2024-02-04T06:48:54;27.10;;;20.30;;
11797;SDS011;5956;51.428;6.682;2024-02-04T06:51:21;24.80;;;20.03;;
11797;SDS011;5956;51.428;6.682;2024-02-04T06:53:48;25.23;;;19.70;;
11797;SDS011;5956;51.428;6.682;2024-02-04T06:56:14;25.47;;;19.03;;
11797;SDS011;5956;51.428;6.682;2024-02-04T06:58:41;20.87;;;18.67;;
11797;SDS011;5956;51.428;6.682;2024-02-04T07:01:09;21.67;;;17.30;;
11797;SDS011;5956;51.428;6.682;2024-02-04T07:03:36;19.40;;;17.33;;
11797;SDS011;5956;51.428;6.682;2024-02-04T07:06:03;21.53;;;17.10;;
11797;SDS011;5956;51.428;6.682;2024-02-04T07:08:30;21.67;;;18.00;;
11797;SDS011;5956;51.428;6.682;2024-02-04T07:10:56;18.73;;;16.00;;
11797;SDS011;5956;51.428;6.682;2024-02-04T07:13:23;19.27;;;15.50;;
11797;SDS011;5956;51.428;6.682;2024-02-04T07:15:49;17.73;;;15.17;;
11797;SDS011;5956;51.428;6.682;2024-02-04T07:18:17;18.00;;;15.30;;
11797;SDS011;5956;51.428;6.682;2024-02-04T07:20:46;19.53;;;16.77;;
11797;SDS011;5956;51.428;6.682;2024-02-04T07:23:13;17.77;;;15.80;;
11797;SDS011;5956;51.428;6.682;2024-02-04T07:25:39;19.63;;;16.00;;
11797;SDS011;5956;51.428;6.682;2024-02-04T07:28:06;20.57;;;17.33;;
11797;SDS011;5956;51.428;6.682;2024-02-04T07:30:33;20.97;;;16.87;;
11797;SDS011;5956;51.428;6.682;2024-02-04T07:32:59;23.07;;;17.00;;
11797;SDS011;5956;51.428;6.682;2024-02-04T07:35:28;18.97;;;14.90;;
11797;SDS011;5956;51.428;6.682;2024-02-04T07:37:54;15.60;;;14.00;;
11797;SDS011;5956;51.428;6.682;2024-02-04T07:40:21;15.17;;;13.17;;
11797;SDS011;5956;51.428;6.682;2024-02-04T07:42:47;18.30;;;14.10;;
11797;SDS011;5956;51.428;6.682;2024-02-04T07:45:14;17.17;;;14.13;;
11797;SDS011;5956;51.428;6.682;2024-02-04T07:47:40;18.07;;;14.40;;
11797;SDS011;5956;51.428;6.682;2024-02-04T07:50:07;16.03;;;14.37;;
11797;SDS011;5956;51.428;6.682;2024-02-04T07:52:36;17.07;;;14.27;;
11797;SDS011;5956;51.428;6.682;2024-02-04T07:55:03;16.23;;;14.60;;
11797;SDS011;5956;51.428;6.682;2024-02-04T07:57:29;16.97;;;15.17;;
11797;SDS011;5956;51.428;6.682;2024-02-04T07:59:56;17.67;;;15.07;;
11797;SDS011;5956;51.428;6.682;2024-02-04T08:02:23;16.13;;;14.43;;
11797;SDS011;5956;51.428;6.682;2024-02-04T08:04:49;16.50;;;14.80;;
11797;SDS011;5956;51.428;6.682;2024-02-04T08:07:16;16.37;;;14.77;;
11797;SDS011;5956;51.428;6.682;2024-02-04T08:09:44;17.17;;;14.67;;
11797;SDS011;5956;51.428;6.682;2024-02-04T08:12:10;15.57;;;13.97;;
11797;SDS011;5956;51.428;6.682;2024-02-04T08:14:37;13.47;;;11.67;;
11797;SDS011;5956;51.428;6.682;2024-02-04T08:17:03;13.90;;;12.40;;
11797;SDS011;5956;51.428;6.682;2024-02-04T08:19:30;13.10;;;11.80;;
11797;SDS011;5956;51.428;6.682;2024-02-04T08:21:56;14.10;;;12.67;;
11797;SDS011;5956;51.428;6.682;2024-02-04T08:24:26;14.07;;;12.60;;
11797;SDS011;5956;51.428;6.682;2024-02-04T08:26:56;13.10;;;11.90;;
11797;SDS011;5956;51.428;6.682;2024-02-04T08:29:23;14.80;;;13.30;;
11797;SDS011;5956;51.428;6.682;2024-02-04T08:31:49;14.63;;;13.13;;
11797;SDS011;5956;51.428;6.682;2024-02-04T08:34:16;14.93;;;13.53;;
11797;SDS011;5956;51.428;6.682;2024-02-04T08:36:42;15.23;;;13.77;;
11797;SDS011;5956;51.428;6.682;2024-02-04T08:39:09;14.73;;;13.07;;
11797;SDS011;5956;51.428;6.682;2024-02-04T08:41:35;15.67;;;14.07;;
11797;SDS011;5956;51.428;6.682;2024-02-04T08:44:03;16.17;;;14.57;;
11797;SDS011;5956;51.428;6.682;2024-02-04T08:46:30;16.47;;;14.27;;
11797;SDS011;5956;51.428;6.682;2024-02-04T08:48:56;14.20;;;12.67;;
11797;SDS011;5956;51.428;6.682;2024-02-04T08:51:23;15.47;;;13.90;;
11797;SDS011;5956;51.428;6.682;2024-02-04T08:53:51;14.43;;;12.93;;
11797;SDS011;5956;51.428;6.682;2024-02-04T08:56:18;14.70;;;13.20;;
11797;SDS011;5956;51.428;6.682;2024-02-04T08:58:45;16.97;;;12.33;;
11797;SDS011;5956;51.428;6.682;2024-02-04T09:01:13;14.63;;;13.13;;
11797;SDS011;5956;51.428;6.682;2024-02-04T09:03:40;13.37;;;11.97;;
11797;SDS011;5956;51.428;6.682;2024-02-04T09:06:07;13.47;;;12.17;;
11797;SDS011;5956;51.428;6.682;2024-02-04T09:08:35;14.53;;;12.73;;
11797;SDS011;5956;51.428;6.682;2024-02-04T09:11:02;12.83;;;11.63;;
11797;SDS011;5956;51.428;6.682;2024-02-04T09:13:29;13.40;;;12.17;;
11797;SDS011;5956;51.428;6.682;2024-02-04T09:15:56;14.43;;;11.97;;
11797;SDS011;5956;51.428;6.682;2024-02-04T09:18:24;13.20;;;11.87;;
11797;SDS011;5956;51.428;6.682;2024-02-04T09:20:50;11.47;;;10.37;;
11797;SDS011;5956;51.428;6.682;2024-02-04T09:23:17;11.97;;;10.60;;
11797;SDS011;5956;51.428;6.682;2024-02-04T09:25:43;12.23;;;11.00;;
11797;SDS011;5956;51.428;6.682;2024-02-04T09:28:10;11.93;;;10.40;;
11797;SDS011;5956;51.428;6.682;2024-02-04T09:30:36;12.63;;;10.80;;
11797;SDS011;5956;51.428;6.682;2024-02-04T09:33:03;14.37;;;12.87;;
11797;SDS011;5956;51.428;6.682;2024-02-04T09:35:32;13.10;;;11.00;;
11797;SDS011;5956;51.428;6.682;2024-02-04T09:37:59;11.13;;;10.07;;
11797;SDS011;5956;51.428;6.682;2024-02-04T09:40:26;10.63;;;9.63;;
11797;SDS011;5956;51.428;6.682;2024-02-04T09:43:09;10.87;;;9.77;;
11797;SDS011;5956;51.428;6.682;2024-02-04T09:45:36;11.20;;;10.07;;
11797;SDS011;5956;51.428;6.682;2024-02-04T09:48:04;12.50;;;10.57;;
11797;SDS011;5956;51.428;6.682;2024-02-04T09:50:35;11.03;;;9.03;;
11797;SDS011;5956;51.428;6.682;2024-02-04T09:53:02;10.87;;;9.73;;
11797;SDS011;5956;51.428;6.682;2024-02-04T09:55:30;9.77;;;8.77;;
11797;SDS011;5956;51.428;6.682;2024-02-04T09:57:57;10.13;;;9.17;;
11797;SDS011;5956;51.428;6.682;2024-02-04T10:00:24;9.87;;;9.07;;
11797;SDS011;5956;51.428;6.682;2024-02-04T10:02:53;10.77;;;9.50;;
11797;SDS011;5956;51.428;6.682;2024-02-04T10:05:20;11.03;;;9.87;;
11797;SDS011;5956;51.428;6.682;2024-02-04T10:07:49;10.33;;;9.33;;
11797;SDS011;5956;51.428;6.682;2024-02-04T10:10:16;9.67;;;8.77;;
11797;SDS011;5956;51.428;6.682;2024-02-04T10:12:42;10.77;;;9.77;;
11797;SDS011;5956;51.428;6.682;2024-02-04T10:15:10;11.17;;;10.00;;
11797;SDS011;5956;51.428;6.682;2024-02-04T10:17:41;9.77;;;8.87;;
11797;SDS011;5956;51.428;6.682;2024-02-04T10:20:09;10.90;;;8.70;;
11797;SDS011;5956;51.428;6.682;2024-02-04T10:22:36;10.17;;;9.17;;
11797;SDS011;5956;51.428;6.682;2024-02-04T10:25:07;9.47;;;8.67;;
11797;SDS011;5956;51.428;6.682;2024-02-04T10:27:34;8.63;;;7.83;;
11797;SDS011;5956;51.428;6.682;2024-02-04T10:30:01;9.20;;;8.30;;
11797;SDS011;5956;51.428;6.682;2024-02-04T10:32:29;10.13;;;8.67;;
11797;SDS011;5956;51.428;6.682;2024-02-04T10:34:57;9.73;;;8.73;;
11797;SDS011;5956;51.428;6.682;2024-02-04T10:37:26;9.73;;;8.73;;
11797;SDS011;5956;51.428;6.682;2024-02-04T10:39:52;9.43;;;8.53;;
11797;SDS011;5956;51.428;6.682;2024-02-04T10:42:22;8.63;;;7.97;;
11797;SDS011;5956;51.428;6.682;2024-02-04T10:47:29;8.17;;;7.40;;
11797;SDS011;5956;51.428;6.682;2024-02-04T10:49:57;7.13;;;6.07;;
11797;SDS011;5956;51.428;6.682;2024-02-04T10:52:27;6.23;;;5.67;;
11797;SDS011;5956;51.428;6.682;2024-02-04T10:54:54;6.17;;;5.67;;
11797;SDS011;5956;51.428;6.682;2024-02-04T10:57:23;6.03;;;5.50;;
11797;SDS011;5956;51.428;6.682;2024-02-04T10:59:52;6.20;;;5.70;;
11797;SDS011;5956;51.428;6.682;2024-02-04T11:02:19;6.50;;;5.90;;
11797;SDS011;5956;51.428;6.682;2024-02-04T11:04:48;6.80;;;6.20;;
11797;SDS011;5956;51.428;6.682;2024-02-04T11:07:14;6.43;;;5.93;;
11797;SDS011;5956;51.428;6.682;2024-02-04T11:09:41;8.37;;;7.57;;
11797;SDS011;5956;51.428;6.682;2024-02-04T11:12:09;7.00;;;6.40;;
11797;SDS011;5956;51.428;6.682;2024-02-04T11:14:38;6.37;;;5.80;;
11797;SDS011;5956;51.428;6.682;2024-02-04T11:17:19;6.60;;;5.87;;
11797;SDS011;5956;51.428;6.682;2024-02-04T11:19:50;5.80;;;5.27;;
11797;SDS011;5956;51.428;6.682;2024-02-04T11:22:22;6.30;;;5.80;;
11797;SDS011;5956;51.428;6.682;2024-02-04T11:24:59;5.80;;;5.30;;
11797;SDS011;5956;51.428;6.682;2024-02-04T11:27:30;5.87;;;5.30;;
11797;SDS011;5956;51.428;6.682;2024-02-04T11:29:58;6.30;;;5.80;;
11797;SDS011;5956;51.428;6.682;2024-02-04T11:32:24;6.30;;;5.70;;
11797;SDS011;5956;51.428;6.682;2024-02-04T11:34:51;7.93;;;6.13;;
11797;SDS011;5956;51.428;6.682;2024-02-04T11:37:19;7.10;;;6.50;;
11797;SDS011;5956;51.428;6.682;2024-02-04T11:39:49;7.50;;;6.77;;
11797;SDS011;5956;51.428;6.682;2024-02-04T11:42:17;6.97;;;6.33;;
11797;SDS011;5956;51.428;6.682;2024-02-04T11:44:45;8.17;;;7.47;;
11797;SDS011;5956;51.428;6.682;2024-02-04T11:47:22;8.37;;;7.57;;
11797;SDS011;5956;51.428;6.682;2024-02-04T11:49:53;8.07;;;7.37;;
11797;SDS011;5956;51.428;6.682;2024-02-04T11:52:19;10.43;;;8.43;;
11797;SDS011;5956;51.428;6.682;2024-02-04T11:54:46;8.53;;;7.47;;
11797;SDS011;5956;51.428;6.682;2024-02-04T11:57:12;8.30;;;7.53;;
11797;SDS011;5956;51.428;6.682;2024-02-04T11:59:42;8.33;;;7.63;;
11797;SDS011;5956;51.428;6.682;2024-02-04T12:02:10;8.67;;;7.87;;
11797;SDS011;5956;51.428;6.682;2024-02-04T12:04:39;8.70;;;7.80;;
11797;SDS011;5956;51.428;6.682;2024-02-04T12:07:05;7.80;;;7.10;;
11797;SDS011;5956;51.428;6.682;2024-02-04T12:09:33;7.63;;;6.80;;
11797;SDS011;5956;51.428;6.682;2024-02-04T12:12:00;6.70;;;6.10;;
11797;SDS011;5956;51.428;6.682;2024-02-04T12:14:28;7.90;;;7.30;;
11797;SDS011;5956;51.428;6.682;2024-02-04T12:16:55;6.70;;;6.20;;
11797;SDS011;5956;51.428;6.682;2024-02-04T12:19:22;7.20;;;6.50;;
11797;SDS011;5956;51.428;6.682;2024-02-04T12:21:50;9.67;;;8.77;;
11797;SDS011;5956;51.428;6.682;2024-02-04T12:24:18;6.63;;;5.57;;
11797;SDS011;5956;51.428;6.682;2024-02-04T12:26:44;7.57;;;6.87;;
11797;SDS011;5956;51.428;6.682;2024-02-04T12:29:12;6.73;;;6.13;;
11797;SDS011;5956;51.428;6.682;2024-02-04T12:31:39;7.10;;;6.50;;
11797;SDS011;5956;51.428;6.682;2024-02-04T12:34:07;6.40;;;5.90;;
11797;SDS011;5956;51.428;6.682;2024-02-04T12:36:34;7.37;;;6.73;;
11797;SDS011;5956;51.428;6.682;2024-02-04T12:39:03;7.33;;;6.63;;
11797;SDS011;5956;51.428;6.682;2024-02-04T12:41:32;7.07;;;6.47;;
11797;SDS011;5956;51.428;6.682;2024-02-04T12:43:59;7.77;;;6.33;;
11797;SDS011;5956;51.428;6.682;2024-02-04T12:46:28;8.27;;;6.63;;
11797;SDS011;5956;51.428;6.682;2024-02-04T12:48:55;7.33;;;6.67;;
11797;SDS011;5956;51.428;6.682;2024-02-04T12:51:24;7.13;;;6.33;;
11797;SDS011;5956;51.428;6.682;2024-02-04T12:54:03;6.90;;;6.30;;
11797;SDS011;5956;51.428;6.682;2024-02-04T12:56:39;7.03;;;6.43;;
11797;SDS011;5956;51.428;6.682;2024-02-04T12:59:07;8.83;;;7.17;;
11797;SDS011;5956;51.428;6.682;2024-02-04T13:01:34;8.77;;;8.00;;
11797;SDS011;5956;51.428;6.682;2024-02-04T13:04:01;7.70;;;6.90;;
11797;SDS011;5956;51.428;6.682;2024-02-04T13:06:30;7.57;;;6.93;;
11797;SDS011;5956;51.428;6.682;2024-02-04T13:08:57;6.77;;;6.07;;
11797;SDS011;5956;51.428;6.682;2024-02-04T13:11:25;6.60;;;6.13;;
11797;SDS011;5956;51.428;6.682;2024-02-04T13:13:52;6.80;;;6.20;;
11797;SDS011;5956;51.428;6.682;2024-02-04T13:16:18;8.23;;;7.43;;
11797;SDS011;5956;51.428;6.682;2024-02-04T13:18:51;7.17;;;6.53;;
11797;SDS011;5956;51.428;6.682;2024-02-04T13:21:18;5.90;;;5.40;;
11797;SDS011;5956;51.428;6.682;2024-02-04T13:23:47;7.57;;;6.87;;
11797;SDS011;5956;51.428;6.682;2024-02-04T13:26:14;7.20;;;6.30;;
11797;SDS011;5956;51.428;6.682;2024-02-04T13:28:43;6.00;;;5.50;;
11797;SDS011;5956;51.428;6.682;2024-02-04T13:31:09;6.17;;;5.57;;
11797;SDS011;5956;51.428;6.682;2024-02-04T13:33:37;6.60;;;6.03;;
11797;SDS011;5956;51.428;6.682;2024-02-04T13:36:04;6.77;;;6.17;;
11797;SDS011;5956;51.428;6.682;2024-02-04T13:38:39;6.63;;;5.97;;
11797;SDS011;5956;51.428;6.682;2024-02-04T13:41:06;7.10;;;6.40;;
11797;SDS011;5956;51.428;6.682;2024-02-04T13:43:33;6.53;;;6.00;;
11797;SDS011;5956;51.428;6.682;2024-02-04T13:46:01;7.87;;;7.10;;
11797;SDS011;5956;51.428;6.682;2024-02-04T13:48:27;8.00;;;6.77;;
11797;SDS011;5956;51.428;6.682;2024-02-04T13:50:54;8.73;;;7.80;;
11797;SDS011;5956;51.428;6.682;2024-02-04T13:53:20;7.87;;;7.07;;
11797;SDS011;5956;51.428;6.682;2024-02-04T13:55:50;8.43;;;7.63;;
11797;SDS011;5956;51.428;6.682;2024-02-04T13:58:23;8.03;;;7.43;;
11797;SDS011;5956;51.428;6.682;2024-02-04T14:00:51;8.30;;;7.50;;
11797;SDS011;5956;51.428;6.682;2024-02-04T14:03:19;8.43;;;7.63;;
11797;SDS011;5956;51.428;6.682;2024-02-04T14:05:46;8.03;;;7.43;;
11797;SDS011;5956;51.428;6.682;2024-02-04T14:08:12;8.10;;;7.13;;
11797;SDS011;5956;51.428;6.682;2024-02-04T14:10:39;8.90;;;7.97;;
11797;SDS011;5956;51.428;6.682;2024-02-04T14:13:06;8.00;;;7.27;;
11797;SDS011;5956;51.428;6.682;2024-02-04T14:15:32;8.57;;;7.63;;
11797;SDS011;5956;51.428;6.682;2024-02-04T14:17:59;8.13;;;7.43;;
11797;SDS011;5956;51.428;6.682;2024-02-04T14:20:27;8.70;;;7.63;;
11797;SDS011;5956;51.428;6.682;2024-02-04T14:22:55;8.50;;;7.70;;
11797;SDS011;5956;51.428;6.682;2024-02-04T14:25:22;8.07;;;7.33;;
11797;SDS011;5956;51.428;6.682;2024-02-04T14:27:50;8.50;;;7.57;;
11797;SDS011;5956;51.428;6.682;2024-02-04T14:30:16;8.13;;;7.33;;
11797;SDS011;5956;51.428;6.682;2024-02-04T14:32:43;9.87;;;7.93;;
11797;SDS011;5956;51.428;6.682;2024-02-04T14:35:09;8.17;;;7.37;;
11797;SDS011;5956;51.428;6.682;2024-02-04T14:37:37;9.00;;;7.50;;
11797;SDS011;5956;51.428;6.682;2024-02-04T14:40:05;10.50;;;7.13;;
11797;SDS011;5956;51.428;6.682;2024-02-04T14:42:32;8.57;;;6.97;;
11797;SDS011;5956;51.428;6.682;2024-02-04T14:44:59;7.40;;;6.70;;
11797;SDS011;5956;51.428;6.682;2024-02-04T14:47:26;8.30;;;7.47;;
11797;SDS011;5956;51.428;6.682;2024-02-04T14:49:53;7.60;;;6.97;;
11797;SDS011;5956;51.428;6.682;2024-02-04T14:52:20;10.27;;;6.97;;